sensor_id;sensor_type;location;lat;lon;timestamp;pressure;altitude;pressure_sealevel;temperature;humidity
9257;BME280;4665;51.368;6.782;2023-02-28T00:00:19;102713.53;;;-1.02;100.00
9257;BME280;4665;51.368;6.782;2023-02-28T00:02:46;102693.72;;;-1.14;100.00
9257;BME280;4665;51.368;6.782;2023-02-28T00:05:15;102689.28;;;-1.12;100.00
9257;BME280;4665;51.368;6.782;2023-02-28T00:07:42;102683.28;;;-1.15;100.00
9257;BME280;4665;51.368;6.782;2023-02-28T00:10:10;102704.84;;;-1.04;100.00
9257;BME280;4665;51.368;6.782;2023-02-28T00:12:36;102699.72;;;-1.09;100.00
9257;BME280;4665;51.368;6.782;2023-02-28T00:15:04;102675.69;;;-1.28;100.00
9257;BME280;4665;51.368;6.782;2023-02-28T00:17:30;102686.22;;;-1.31;100.00
9257;BME280;4665;51.368;6.782;2023-02-28T00:19:56;102685.38;;;-1.33;100.00
9257;BME280;4665;51.368;6.782;2023-02-28T00:22:22;102695.84;;;-1.33;100.00
9257;BME280;4665;51.368;6.782;2023-02-28T00:24:50;102685.56;;;-1.42;100.00
9257;BME280;4665;51.368;6.782;2023-02-28T00:27:16;102682.91;;;-1.39;100.00
9257;BME280;4665;51.368;6.782;2023-02-28T00:29:41;102695.88;;;-1.34;100.00
9257;BME280;4665;51.368;6.782;2023-02-28T00:32:07;102709.69;;;-1.28;100.00
9257;BME280;4665;51.368;6.782;2023-02-28T00:34:32;102706.19;;;-1.27;100.00
9257;BME280;4665;51.368;6.782;2023-02-28T00:37:04;102685.56;;;-1.42;100.00
9257;BME280;4665;51.368;6.782;2023-02-28T00:39:35;102687.22;;;-1.38;100.00
9257;BME280;4665;51.368;6.782;2023-02-28T00:42:02;102689.09;;;-1.43;100.00
9257;BME280;4665;51.368;6.782;2023-02-28T00:44:28;102700.22;;;-1.35;100.00
9257;BME280;4665;51.368;6.782;2023-02-28T00:46:54;102689.88;;;-1.39;100.00
9257;BME280;4665;51.368;6.782;2023-02-28T00:49:20;102679.47;;;-1.42;100.00
9257;BME280;4665;51.368;6.782;2023-02-28T00:51:46;102680.31;;;-1.40;100.00
9257;BME280;4665;51.368;6.782;2023-02-28T00:54:12;102680.47;;;-1.48;100.00
9257;BME280;4665;51.368;6.782;2023-02-28T00:56:37;102678.81;;;-1.52;100.00
9257;BME280;4665;51.368;6.782;2023-02-28T00:59:03;102701.50;;;-1.56;100.00
9257;BME280;4665;51.368;6.782;2023-02-28T01:01:28;102691.31;;;-1.70;100.00
9257;BME280;4665;51.368;6.782;2023-02-28T01:03:54;102711.34;;;-1.67;100.00
9257;BME280;4665;51.368;6.782;2023-02-28T01:06:22;102703.59;;;-1.72;100.00
9257;BME280;4665;51.368;6.782;2023-02-28T01:08:50;102719.19;;;-1.68;100.00
9257;BME280;4665;51.368;6.782;2023-02-28T01:11:17;102695.94;;;-1.82;100.00
9257;BME280;4665;51.368;6.782;2023-02-28T01:13:44;102689.84;;;-1.83;100.00
9257;BME280;4665;51.368;6.782;2023-02-28T01:16:09;102698.47;;;-1.79;100.00
9257;BME280;4665;51.368;6.782;2023-02-28T01:18:35;102691.56;;;-1.83;100.00
9257;BME280;4665;51.368;6.782;2023-02-28T01:21:14;102696.00;;;-1.85;100.00
9257;BME280;4665;51.368;6.782;2023-02-28T01:23:42;102696.00;;;-1.85;100.00
9257;BME280;4665;51.368;6.782;2023-02-28T01:26:13;102701.13;;;-1.81;100.00
9257;BME280;4665;51.368;6.782;2023-02-28T01:28:38;102695.94;;;-1.84;100.00
9257;BME280;4665;51.368;6.782;2023-02-28T01:31:04;102700.34;;;-1.86;100.00
9257;BME280;4665;51.368;6.782;2023-02-28T01:33:30;102695.19;;;-1.89;100.00
9257;BME280;4665;51.368;6.782;2023-02-28T01:36:00;102702.16;;;-1.88;100.00
9257;BME280;4665;51.368;6.782;2023-02-28T01:38:26;102719.38;;;-1.78;100.00
9257;BME280;4665;51.368;6.782;2023-02-28T01:40:54;102700.41;;;-1.89;100.00
9257;BME280;4665;51.368;6.782;2023-02-28T01:43:29;102716.00;;;-1.86;100.00
9257;BME280;4665;51.368;6.782;2023-02-28T01:45:56;102703.88;;;-1.88;100.00
9257;BME280;4665;51.368;6.782;2023-02-28T01:48:27;102701.25;;;-1.88;100.00
9257;BME280;4665;51.368;6.782;2023-02-28T01:50:59;102710.63;;;-1.77;100.00
9257;BME280;4665;51.368;6.782;2023-02-28T01:53:36;102708.97;;;-1.81;100.00
9257;BME280;4665;51.368;6.782;2023-02-28T01:56:05;102692.56;;;-1.91;100.00
9257;BME280;4665;51.368;6.782;2023-02-28T01:58:32;102714.22;;;-1.82;100.00
9257;BME280;4665;51.368;6.782;2023-02-28T02:00:57;102683.94;;;-1.94;100.00
9257;BME280;4665;51.368;6.782;2023-02-28T02:03:23;102696.94;;;-1.89;100.00
9257;BME280;4665;51.368;6.782;2023-02-28T02:05:49;102687.41;;;-1.92;100.00
9257;BME280;4665;51.368;6.782;2023-02-28T02:08:21;102684.72;;;-1.87;100.00
9257;BME280;4665;51.368;6.782;2023-02-28T02:10:54;102684.63;;;-1.84;100.00
9257;BME280;4665;51.368;6.782;2023-02-28T02:16:11;102699.38;;;-1.80;100.00
9257;BME280;4665;51.368;6.782;2023-02-28T02:18:51;102695.00;;;-1.80;100.00
9257;BME280;4665;51.368;6.782;2023-02-28T02:33:23;102682.84;;;-1.81;100.00
9257;BME280;4665;51.368;6.782;2023-02-28T02:35:55;102681.09;;;-1.82;100.00
9257;BME280;4665;51.368;6.782;2023-02-28T02:44:25;102672.50;;;-1.87;100.00
9257;BME280;4665;51.368;6.782;2023-02-28T02:47:04;102676.91;;;-1.91;100.00
9257;BME280;4665;51.368;6.782;2023-02-28T02:49:32;102672.59;;;-1.93;100.00
9257;BME280;4665;51.368;6.782;2023-02-28T02:52:04;102676.97;;;-1.94;100.00
9257;BME280;4665;51.368;6.782;2023-02-28T02:54:37;102677.03;;;-1.97;100.00
9257;BME280;4665;51.368;6.782;2023-02-28T02:57:13;102679.72;;;-2.01;100.00
9257;BME280;4665;51.368;6.782;2023-02-28T02:59:42;102663.53;;;-2.20;100.00
9257;BME280;4665;51.368;6.782;2023-02-28T03:02:12;102669.53;;;-2.15;100.00
9257;BME280;4665;51.368;6.782;2023-02-28T03:04:51;102670.47;;;-2.19;100.00
9257;BME280;4665;51.368;6.782;2023-02-28T03:07:17;102669.75;;;-2.29;100.00
9257;BME280;4665;51.368;6.782;2023-02-28T03:09:53;102668.13;;;-2.36;100.00
9257;BME280;4665;51.368;6.782;2023-02-28T03:12:19;102676.84;;;-2.37;100.00
9257;BME280;4665;51.368;6.782;2023-02-28T03:20:02;102670.78;;;-2.39;100.00
9257;BME280;4665;51.368;6.782;2023-02-28T03:22:56;102648.41;;;-2.52;100.00
9257;BME280;4665;51.368;6.782;2023-02-28T03:28:13;102652.66;;;-2.48;100.00
9257;BME280;4665;51.368;6.782;2023-02-28T03:31:07;102669.97;;;-2.41;100.00
9257;BME280;4665;51.368;6.782;2023-02-28T03:33:40;102669.16;;;-2.46;100.00
9257;BME280;4665;51.368;6.782;2023-02-28T03:36:14;102662.31;;;-2.54;100.00
9257;BME280;4665;51.368;6.782;2023-02-28T03:38:53;102654.59;;;-2.60;100.00
9257;BME280;4665;51.368;6.782;2023-02-28T03:41:28;102659.91;;;-2.66;100.00
9257;BME280;4665;51.368;6.782;2023-02-28T03:44:12;102685.81;;;-2.54;100.00
9257;BME280;4665;51.368;6.782;2023-02-28T03:47:07;102681.56;;;-2.61;100.00
9257;BME280;4665;51.368;6.782;2023-02-28T03:49:45;102679.88;;;-2.63;100.00
9257;BME280;4665;51.368;6.782;2023-02-28T03:52:13;102679.94;;;-2.68;100.00
9257;BME280;4665;51.368;6.782;2023-02-28T03:54:51;102679.94;;;-2.69;100.00
9257;BME280;4665;51.368;6.782;2023-02-28T04:02:34;102681.00;;;-2.81;100.00
9257;BME280;4665;51.368;6.782;2023-02-28T04:05:05;102675.91;;;-2.90;100.00
9257;BME280;4665;51.368;6.782;2023-02-28T04:07:31;102667.28;;;-2.94;100.00
9257;BME280;4665;51.368;6.782;2023-02-28T04:10:00;102687.19;;;-2.87;100.00
9257;BME280;4665;51.368;6.782;2023-02-28T04:12:28;102668.13;;;-2.93;100.00
9257;BME280;4665;51.368;6.782;2023-02-28T04:14:54;102672.44;;;-2.89;100.00
9257;BME280;4665;51.368;6.782;2023-02-28T04:17:22;102668.19;;;-2.97;100.00
9257;BME280;4665;51.368;6.782;2023-02-28T04:19:50;102662.97;;;-2.97;100.00
9257;BME280;4665;51.368;6.782;2023-02-28T04:22:15;102663.00;;;-3.00;100.00
9257;BME280;4665;51.368;6.782;2023-02-28T04:24:43;102677.72;;;-2.96;100.00
9257;BME280;4665;51.368;6.782;2023-02-28T04:27:09;102672.53;;;-2.97;100.00
9257;BME280;4665;51.368;6.782;2023-02-28T04:29:35;102678.63;;;-2.97;100.00
9257;BME280;4665;51.368;6.782;2023-02-28T04:32:01;102676.84;;;-2.94;100.00
9257;BME280;4665;51.368;6.782;2023-02-28T04:34:30;102693.19;;;-2.83;100.00
9257;BME280;4665;51.368;6.782;2023-02-28T04:36:56;102695.84;;;-2.85;100.00
9257;BME280;4665;51.368;6.782;2023-02-28T04:39:23;102674.28;;;-2.98;100.00
9257;BME280;4665;51.368;6.782;2023-02-28T04:41:50;102672.56;;;-2.99;100.00
9257;BME280;4665;51.368;6.782;2023-02-28T04:44:16;102683.84;;;-2.98;100.00
9257;BME280;4665;51.368;6.782;2023-02-28T04:46:47;102676.03;;;-3.00;100.00
9257;BME280;4665;51.368;6.782;2023-02-28T04:49:22;102681.34;;;-3.06;100.00
9257;BME280;4665;51.368;6.782;2023-02-28T04:51:47;102673.56;;;-3.09;100.00
9257;BME280;4665;51.368;6.782;2023-02-28T04:54:15;102677.91;;;-3.09;100.00
9257;BME280;4665;51.368;6.782;2023-02-28T04:56:46;102683.31;;;-3.22;100.00
9257;BME280;4665;51.368;6.782;2023-02-28T04:59:15;102695.44;;;-3.19;100.00
9257;BME280;4665;51.368;6.782;2023-02-28T05:01:45;102682.41;;;-3.21;100.00
9257;BME280;4665;51.368;6.782;2023-02-28T05:04:17;102682.41;;;-3.19;100.00
9257;BME280;4665;51.368;6.782;2023-02-28T05:06:54;102691.06;;;-3.19;100.00
9257;BME280;4665;51.368;6.782;2023-02-28T05:09:22;102686.75;;;-3.20;100.00
9257;BME280;4665;51.368;6.782;2023-02-28T05:11:47;102694.59;;;-3.21;100.00
9257;BME280;4665;51.368;6.782;2023-02-28T05:14:14;102697.13;;;-3.15;100.00
9257;BME280;4665;51.368;6.782;2023-02-28T05:16:42;102692.75;;;-3.14;100.00
9257;BME280;4665;51.368;6.782;2023-02-28T05:19:07;102697.94;;;-3.11;100.00
9257;BME280;4665;51.368;6.782;2023-02-28T05:21:53;102702.28;;;-3.12;100.00
9257;BME280;4665;51.368;6.782;2023-02-28T05:24:19;102691.91;;;-3.17;100.00
9257;BME280;4665;51.368;6.782;2023-02-28T05:26:48;102722.16;;;-3.02;100.00
9257;BME280;4665;51.368;6.782;2023-02-28T05:29:15;102691.06;;;-3.15;100.00
9257;BME280;4665;51.368;6.782;2023-02-28T05:31:41;102697.94;;;-3.11;100.00
9257;BME280;4665;51.368;6.782;2023-02-28T05:34:06;102708.41;;;-3.13;100.00
9257;BME280;4665;51.368;6.782;2023-02-28T05:36:39;102716.19;;;-3.10;100.00
9257;BME280;4665;51.368;6.782;2023-02-28T05:39:06;102711.84;;;-3.11;100.00
9257;BME280;4665;51.368;6.782;2023-02-28T05:41:32;102716.19;;;-3.11;100.00
9257;BME280;4665;51.368;6.782;2023-02-28T05:43:58;102706.78;;;-3.23;100.00
9257;BME280;4665;51.368;6.782;2023-02-28T05:46:26;102705.91;;;-3.24;100.00
9257;BME280;4665;51.368;6.782;2023-02-28T05:48:55;102712.78;;;-3.18;100.00
9257;BME280;4665;51.368;6.782;2023-02-28T05:51:28;102718.00;;;-3.15;100.00
9257;BME280;4665;51.368;6.782;2023-02-28T05:53:59;102716.28;;;-3.19;100.00
9257;BME280;4665;51.368;6.782;2023-02-28T05:56:28;102724.06;;;-3.16;100.00
9257;BME280;4665;51.368;6.782;2023-02-28T05:58:54;102731.88;;;-3.13;100.00
9257;BME280;4665;51.368;6.782;2023-02-28T06:01:32;102735.28;;;-3.08;100.00
9257;BME280;4665;51.368;6.782;2023-02-28T06:04:02;102712.84;;;-3.23;100.00
9257;BME280;4665;51.368;6.782;2023-02-28T06:06:28;102713.75;;;-3.24;100.00
9257;BME280;4665;51.368;6.782;2023-02-28T06:08:55;102722.41;;;-3.23;100.00
9257;BME280;4665;51.368;6.782;2023-02-28T06:11:27;102730.19;;;-3.17;100.00
9257;BME280;4665;51.368;6.782;2023-02-28T06:13:57;102719.88;;;-3.28;100.00
9257;BME280;4665;51.368;6.782;2023-02-28T06:16:29;102723.38;;;-3.32;100.00
9257;BME280;4665;51.368;6.782;2023-02-28T06:18:57;102737.25;;;-3.28;100.00
9257;BME280;4665;51.368;6.782;2023-02-28T06:21:23;102732.19;;;-3.41;100.00
9257;BME280;4665;51.368;6.782;2023-02-28T06:23:49;102736.50;;;-3.40;100.00
9257;BME280;4665;51.368;6.782;2023-02-28T06:26:19;102737.38;;;-3.39;100.00
9257;BME280;4665;51.368;6.782;2023-02-28T06:28:44;102746.88;;;-3.33;100.00
9257;BME280;4665;51.368;6.782;2023-02-28T06:31:14;102734.72;;;-3.33;100.00
9257;BME280;4665;51.368;6.782;2023-02-28T06:33:40;102745.03;;;-3.25;100.00
9257;BME280;4665;51.368;6.782;2023-02-28T06:36:07;102752.78;;;-3.19;100.00
9257;BME280;4665;51.368;6.782;2023-02-28T06:38:33;102740.66;;;-3.23;100.00
9257;BME280;4665;51.368;6.782;2023-02-28T06:41:05;102759.72;;;-3.18;100.00
9257;BME280;4665;51.368;6.782;2023-02-28T06:43:36;102747.69;;;-3.28;100.00
9257;BME280;4665;51.368;6.782;2023-02-28T06:46:07;102747.72;;;-3.31;100.00
9257;BME280;4665;51.368;6.782;2023-02-28T06:48:42;102748.59;;;-3.32;100.00
9257;BME280;4665;51.368;6.782;2023-02-28T06:51:14;102750.34;;;-3.31;100.00
9257;BME280;4665;51.368;6.782;2023-02-28T06:53:42;102754.69;;;-3.33;100.00
9257;BME280;4665;51.368;6.782;2023-02-28T06:56:11;102771.09;;;-3.25;100.00
9257;BME280;4665;51.368;6.782;2023-02-28T06:58:37;102763.38;;;-3.34;100.00
9257;BME280;4665;51.368;6.782;2023-02-28T07:01:07;102751.19;;;-3.32;100.00
9257;BME280;4665;51.368;6.782;2023-02-28T07:03:37;102771.94;;;-3.20;100.00
9257;BME280;4665;51.368;6.782;2023-02-28T07:06:10;102759.78;;;-3.21;100.00
9257;BME280;4665;51.368;6.782;2023-02-28T07:08:36;102771.91;;;-3.17;100.00
9257;BME280;4665;51.368;6.782;2023-02-28T07:11:04;102784.78;;;-3.03;100.00
9257;BME280;4665;51.368;6.782;2023-02-28T07:13:36;102765.72;;;-3.11;100.00
9257;BME280;4665;51.368;6.782;2023-02-28T07:16:09;102763.13;;;-3.08;100.00
9257;BME280;4665;51.368;6.782;2023-02-28T07:18:39;102768.28;;;-3.04;100.00
9257;BME280;4665;51.368;6.782;2023-02-28T07:21:07;102765.63;;;-3.01;100.00
9257;BME280;4665;51.368;6.782;2023-02-28T07:23:37;102766.41;;;-2.96;100.00
9257;BME280;4665;51.368;6.782;2023-02-28T07:26:11;102778.44;;;-2.82;100.00
9257;BME280;4665;51.368;6.782;2023-02-28T07:28:40;102770.59;;;-2.82;100.00
9257;BME280;4665;51.368;6.782;2023-02-28T07:31:12;102773.94;;;-2.72;100.00
9257;BME280;4665;51.368;6.782;2023-02-28T07:33:50;102773.88;;;-2.68;100.00
9257;BME280;4665;51.368;6.782;2023-02-28T07:36:17;102772.00;;;-2.58;100.00
9257;BME280;4665;51.368;6.782;2023-02-28T07:38:45;102777.94;;;-2.47;100.00
9257;BME280;4665;51.368;6.782;2023-02-28T07:41:19;102773.50;;;-2.42;100.00
9257;BME280;4665;51.368;6.782;2023-02-28T07:43:45;102789.75;;;-2.23;100.00
9257;BME280;4665;51.368;6.782;2023-02-28T07:46:13;102778.47;;;-2.23;100.00
9257;BME280;4665;51.368;6.782;2023-02-28T07:48:40;102786.91;;;-2.06;100.00
9257;BME280;4665;51.368;6.782;2023-02-28T07:51:06;102778.22;;;-2.08;100.00
9257;BME280;4665;51.368;6.782;2023-02-28T07:53:32;102773.72;;;-1.98;100.00
9257;BME280;4665;51.368;6.782;2023-02-28T07:55:59;102767.50;;;-1.91;100.00
9257;BME280;4665;51.368;6.782;2023-02-28T07:58:27;102784.78;;;-1.81;100.00
9257;BME280;4665;51.368;6.782;2023-02-28T08:00:52;102773.31;;;-1.74;100.00
9257;BME280;4665;51.368;6.782;2023-02-28T08:03:19;102778.31;;;-1.61;100.00
9257;BME280;4665;51.368;6.782;2023-02-28T08:05:45;102774.69;;;-1.53;100.00
9257;BME280;4665;51.368;6.782;2023-02-28T08:08:11;102796.13;;;-1.35;100.00
9257;BME280;4665;51.368;6.782;2023-02-28T08:10:36;102790.81;;;-1.31;100.00
9257;BME280;4665;51.368;6.782;2023-02-28T08:13:02;102786.31;;;-1.22;100.00
9257;BME280;4665;51.368;6.782;2023-02-28T08:15:28;102775.72;;;-1.16;100.00
9257;BME280;4665;51.368;6.782;2023-02-28T08:17:53;102787.66;;;-1.03;100.00
9257;BME280;4665;51.368;6.782;2023-02-28T08:20:21;102791.75;;;-0.88;100.00
9257;BME280;4665;51.368;6.782;2023-02-28T08:22:47;102782.91;;;-0.84;100.00
9257;BME280;4665;51.368;6.782;2023-02-28T08:25:12;102778.41;;;-0.77;100.00
9257;BME280;4665;51.368;6.782;2023-02-28T08:27:37;102787.75;;;-0.66;100.00
9257;BME280;4665;51.368;6.782;2023-02-28T08:30:03;102809.13;;;-0.45;100.00
9257;BME280;4665;51.368;6.782;2023-02-28T08:32:29;102789.00;;;-0.43;100.00
9257;BME280;4665;51.368;6.782;2023-02-28T08:34:54;102799.91;;;-0.23;100.00
9257;BME280;4665;51.368;6.782;2023-02-28T08:37:20;102803.16;;;-0.13;100.00
9257;BME280;4665;51.368;6.782;2023-02-28T08:39:45;102788.94;;;-0.03;100.00
9257;BME280;4665;51.368;6.782;2023-02-28T08:42:11;102790.34;;;0.11;100.00
9257;BME280;4665;51.368;6.782;2023-02-28T08:44:36;102790.88;;;0.25;100.00
9257;BME280;4665;51.368;6.782;2023-02-28T08:47:02;102794.00;;;0.39;100.00
9257;BME280;4665;51.368;6.782;2023-02-28T08:49:27;102792.88;;;0.50;100.00
9257;BME280;4665;51.368;6.782;2023-02-28T08:51:53;102796.00;;;0.62;100.00
9257;BME280;4665;51.368;6.782;2023-02-28T08:54:20;102784.72;;;0.60;100.00
9257;BME280;4665;51.368;6.782;2023-02-28T08:56:46;102789.84;;;0.65;100.00
9257;BME280;4665;51.368;6.782;2023-02-28T08:59:15;102805.16;;;0.80;100.00
9257;BME280;4665;51.368;6.782;2023-02-28T09:01:40;102790.34;;;0.78;100.00
9257;BME280;4665;51.368;6.782;2023-02-28T09:04:07;102792.69;;;0.89;100.00
9257;BME280;4665;51.368;6.782;2023-02-28T09:06:34;102779.31;;;0.98;100.00
9257;BME280;4665;51.368;6.782;2023-02-28T09:09:00;102785.91;;;1.11;100.00
9257;BME280;4665;51.368;6.782;2023-02-28T09:11:27;102776.94;;;1.18;100.00
9257;BME280;4665;51.368;6.782;2023-02-28T09:13:52;102780.38;;;1.20;100.00
9257;BME280;4665;51.368;6.782;2023-02-28T09:16:18;102783.50;;;1.35;100.00
9257;BME280;4665;51.368;6.782;2023-02-28T09:18:44;102778.84;;;1.43;100.00
9257;BME280;4665;51.368;6.782;2023-02-28T09:21:12;102780.25;;;1.55;100.00
9257;BME280;4665;51.368;6.782;2023-02-28T09:23:43;102763.47;;;1.59;100.00
9257;BME280;4665;51.368;6.782;2023-02-28T09:26:17;102773.56;;;1.73;100.00
9257;BME280;4665;51.368;6.782;2023-02-28T09:28:43;102764.72;;;1.75;100.00
9257;BME280;4665;51.368;6.782;2023-02-28T09:31:23;102784.16;;;1.98;100.00
9257;BME280;4665;51.368;6.782;2023-02-28T09:33:50;102784.50;;;2.14;97.60
9257;BME280;4665;51.368;6.782;2023-02-28T09:36:16;102773.06;;;2.15;82.43
9257;BME280;4665;51.368;6.782;2023-02-28T09:38:41;102760.84;;;2.14;78.22
9257;BME280;4665;51.368;6.782;2023-02-28T09:41:38;102776.94;;;2.29;78.33
9257;BME280;4665;51.368;6.782;2023-02-28T09:44:07;102774.13;;;2.34;76.76
9257;BME280;4665;51.368;6.782;2023-02-28T09:46:45;102787.47;;;2.55;77.02
9257;BME280;4665;51.368;6.782;2023-02-28T09:49:22;102774.09;;;2.61;79.99
9257;BME280;4665;51.368;6.782;2023-02-28T09:52:09;102789.78;;;2.64;75.35
9257;BME280;4665;51.368;6.782;2023-02-28T09:54:36;102783.53;;;2.41;83.76
9257;BME280;4665;51.368;6.782;2023-02-28T09:59:44;102785.28;;;2.42;79.48
9257;BME280;4665;51.368;6.782;2023-02-28T10:12:52;102783.66;;;2.88;69.59
9257;BME280;4665;51.368;6.782;2023-02-28T10:15:22;102788.47;;;3.01;67.42
9257;BME280;4665;51.368;6.782;2023-02-28T10:17:53;102772.66;;;3.01;67.63
9257;BME280;4665;51.368;6.782;2023-02-28T10:20:21;102781.66;;;3.19;65.37
9257;BME280;4665;51.368;6.782;2023-02-28T10:22:58;102788.09;;;3.33;66.69
9257;BME280;4665;51.368;6.782;2023-02-28T10:25:32;102785.16;;;3.41;63.96
9257;BME280;4665;51.368;6.782;2023-02-28T10:28:11;102787.56;;;3.47;64.39
9257;BME280;4665;51.368;6.782;2023-02-28T10:30:40;102775.69;;;3.59;65.83
9257;BME280;4665;51.368;6.782;2023-02-28T10:33:17;102771.09;;;3.64;61.53
9257;BME280;4665;51.368;6.782;2023-02-28T10:35:44;102768.22;;;3.70;59.88
9257;BME280;4665;51.368;6.782;2023-02-28T10:38:15;102747.50;;;3.61;59.10
9257;BME280;4665;51.368;6.782;2023-02-28T10:40:41;102767.38;;;3.70;59.62
9257;BME280;4665;51.368;6.782;2023-02-28T10:45:39;102772.44;;;3.74;57.94
9257;BME280;4665;51.368;6.782;2023-02-28T10:58:31;102754.19;;;4.12;54.56
9257;BME280;4665;51.368;6.782;2023-02-28T11:00:58;102765.66;;;4.11;55.22
9257;BME280;4665;51.368;6.782;2023-02-28T11:03:34;102751.88;;;4.05;56.33
9257;BME280;4665;51.368;6.782;2023-02-28T11:06:12;102748.91;;;4.12;55.42
9257;BME280;4665;51.368;6.782;2023-02-28T11:08:47;102748.66;;;4.18;57.46
9257;BME280;4665;51.368;6.782;2023-02-28T11:11:13;102740.34;;;4.07;54.60
9257;BME280;4665;51.368;6.782;2023-02-28T11:13:39;102742.03;;;4.08;54.84
9257;BME280;4665;51.368;6.782;2023-02-28T11:16:06;102732.06;;;3.94;55.42
9257;BME280;4665;51.368;6.782;2023-02-28T11:18:51;102745.59;;;4.07;53.82
9257;BME280;4665;51.368;6.782;2023-02-28T11:26:47;102746.81;;;4.20;56.47
9257;BME280;4665;51.368;6.782;2023-02-28T11:29:22;102729.25;;;4.19;55.22
9257;BME280;4665;51.368;6.782;2023-02-28T11:32:20;102748.13;;;4.31;55.67
9257;BME280;4665;51.368;6.782;2023-02-28T11:34:47;102740.94;;;4.34;55.58
9257;BME280;4665;51.368;6.782;2023-02-28T11:37:25;102736.84;;;4.27;54.90
9257;BME280;4665;51.368;6.782;2023-02-28T11:39:52;102740.25;;;4.29;52.57
9257;BME280;4665;51.368;6.782;2023-02-28T11:50:52;102745.03;;;4.41;55.76
9257;BME280;4665;51.368;6.782;2023-02-28T11:53:28;102742.31;;;4.43;53.15
9257;BME280;4665;51.368;6.782;2023-02-28T11:56:05;102740.91;;;4.55;52.60
9257;BME280;4665;51.368;6.782;2023-02-28T12:02:05;102744.69;;;4.89;57.38
9257;BME280;4665;51.368;6.782;2023-02-28T12:08:09;102729.69;;;4.89;54.54
9257;BME280;4665;51.368;6.782;2023-02-28T12:10:30;102732.50;;;5.05;57.15
9257;BME280;4665;51.368;6.782;2023-02-28T12:15:53;102725.13;;;5.12;50.92
9257;BME280;4665;51.368;6.782;2023-02-28T12:18:50;102727.41;;;5.00;51.64
9257;BME280;4665;51.368;6.782;2023-02-28T12:21:47;102732.97;;;4.94;51.06
9257;BME280;4665;51.368;6.782;2023-02-28T12:27:09;102696.88;;;4.76;52.37
9257;BME280;4665;51.368;6.782;2023-02-28T12:32:54;102696.56;;;4.82;50.78
9257;BME280;4665;51.368;6.782;2023-02-28T12:35:26;102689.69;;;4.78;52.47
9257;BME280;4665;51.368;6.782;2023-02-28T12:38:17;102690.06;;;4.89;53.72
9257;BME280;4665;51.368;6.782;2023-02-28T12:40:49;102679.59;;;4.88;50.41
9257;BME280;4665;51.368;6.782;2023-02-28T12:43:17;102676.75;;;4.92;54.91
9257;BME280;4665;51.368;6.782;2023-02-28T12:45:52;102681.81;;;4.97;52.42
9257;BME280;4665;51.368;6.782;2023-02-28T12:48:37;102659.75;;;4.79;51.86
9257;BME280;4665;51.368;6.782;2023-02-28T12:51:05;102657.59;;;4.87;53.05
9257;BME280;4665;51.368;6.782;2023-02-28T12:58:47;102671.09;;;4.81;51.86
9257;BME280;4665;51.368;6.782;2023-02-28T13:01:21;102677.81;;;4.88;53.04
9257;BME280;4665;51.368;6.782;2023-02-28T13:09:15;102653.94;;;4.90;52.25
9257;BME280;4665;51.368;6.782;2023-02-28T13:11:50;102654.25;;;5.02;53.84
9257;BME280;4665;51.368;6.782;2023-02-28T13:19:42;102640.59;;;5.12;53.47
9257;BME280;4665;51.368;6.782;2023-02-28T13:24:53;102629.41;;;5.24;56.28
9257;BME280;4665;51.368;6.782;2023-02-28T13:29:52;102629.69;;;5.37;55.03
9257;BME280;4665;51.368;6.782;2023-02-28T13:32:32;102634.81;;;5.40;54.16
9257;BME280;4665;51.368;6.782;2023-02-28T13:40:33;102618.25;;;5.36;52.41
9257;BME280;4665;51.368;6.782;2023-02-28T13:43:03;102603.88;;;5.24;53.60
9257;BME280;4665;51.368;6.782;2023-02-28T13:45:32;102608.44;;;5.21;52.10
9257;BME280;4665;51.368;6.782;2023-02-28T13:48:15;102603.16;;;5.21;53.90
9257;BME280;4665;51.368;6.782;2023-02-28T13:50:42;102623.38;;;5.39;54.69
9257;BME280;4665;51.368;6.782;2023-02-28T13:53:47;102611.97;;;5.39;53.15
9257;BME280;4665;51.368;6.782;2023-02-28T13:56:26;102612.81;;;5.39;52.52
9257;BME280;4665;51.368;6.782;2023-02-28T14:04:46;102606.44;;;5.61;53.61
9257;BME280;4665;51.368;6.782;2023-02-28T14:07:30;102606.13;;;5.67;55.17
9257;BME280;4665;51.368;6.782;2023-02-28T14:10:03;102597.25;;;5.68;55.56
9257;BME280;4665;51.368;6.782;2023-02-28T14:13:03;102607.97;;;5.82;54.95
9257;BME280;4665;51.368;6.782;2023-02-28T14:18:13;102605.06;;;5.71;50.77
9257;BME280;4665;51.368;6.782;2023-02-28T14:20:40;102605.34;;;5.65;51.15
9257;BME280;4665;51.368;6.782;2023-02-28T14:28:24;102584.19;;;5.65;52.54
9257;BME280;4665;51.368;6.782;2023-02-28T14:31:00;102597.13;;;5.71;52.64
9257;BME280;4665;51.368;6.782;2023-02-28T14:36:14;102596.78;;;5.77;53.21
9257;BME280;4665;51.368;6.782;2023-02-28T14:38:48;102595.88;;;5.78;53.01
9257;BME280;4665;51.368;6.782;2023-02-28T14:41:37;102586.69;;;5.68;53.88
9257;BME280;4665;51.368;6.782;2023-02-28T14:44:22;102591.28;;;5.64;52.60
9257;BME280;4665;51.368;6.782;2023-02-28T14:46:50;102569.41;;;5.61;54.69
9257;BME280;4665;51.368;6.782;2023-02-28T14:49:26;102581.69;;;5.79;55.65
9257;BME280;4665;51.368;6.782;2023-02-28T14:52:15;102587.16;;;5.76;53.50
9257;BME280;4665;51.368;6.782;2023-02-28T14:54:43;102575.31;;;5.66;55.06
9257;BME280;4665;51.368;6.782;2023-02-28T14:57:27;102587.63;;;5.67;53.54
9257;BME280;4665;51.368;6.782;2023-02-28T14:59:58;102588.47;;;5.67;54.32
9257;BME280;4665;51.368;6.782;2023-02-28T15:02:26;102587.28;;;5.73;57.56
9257;BME280;4665;51.368;6.782;2023-02-28T15:05:02;102586.53;;;5.71;56.88
9257;BME280;4665;51.368;6.782;2023-02-28T15:07:34;102580.72;;;5.64;58.50
9257;BME280;4665;51.368;6.782;2023-02-28T15:10:09;102583.59;;;5.60;59.93
9257;BME280;4665;51.368;6.782;2023-02-28T15:12:35;102575.78;;;5.57;58.23
9257;BME280;4665;51.368;6.782;2023-02-28T15:15:02;102571.91;;;5.46;59.24
9257;BME280;4665;51.368;6.782;2023-02-28T15:17:28;102571.19;;;5.43;60.47
9257;BME280;4665;51.368;6.782;2023-02-28T15:19:54;102567.34;;;5.50;60.50
9257;BME280;4665;51.368;6.782;2023-02-28T15:22:38;102568.31;;;5.47;60.92
9257;BME280;4665;51.368;6.782;2023-02-28T15:25:05;102569.66;;;5.39;59.47
9257;BME280;4665;51.368;6.782;2023-02-28T15:27:32;102580.00;;;5.43;59.52
9257;BME280;4665;51.368;6.782;2023-02-28T15:30:00;102572.44;;;5.36;60.87
9257;BME280;4665;51.368;6.782;2023-02-28T15:32:35;102576.19;;;5.32;61.19
9257;BME280;4665;51.368;6.782;2023-02-28T15:35:26;102577.97;;;5.31;61.08
9257;BME280;4665;51.368;6.782;2023-02-28T15:37:58;102573.91;;;5.24;59.99